createdAt,value
2022-08-26T00:01:57.887Z,25.42
2022-08-26T00:04:32.119Z,25.40
2022-08-26T00:07:05.333Z,25.39
2022-08-26T00:09:40.129Z,25.36
2022-08-26T00:12:12.780Z,25.35
2022-08-26T00:14:45.144Z,25.29
2022-08-26T00:17:17.156Z,25.24
2022-08-26T00:19:49.189Z,25.19
2022-08-26T00:22:25.363Z,25.13
2022-08-26T00:24:58.328Z,25.11
2022-08-26T00:27:34.004Z,25.08
2022-08-26T00:30:14.358Z,25.04
2022-08-26T00:32:47.246Z,25.03
2022-08-26T00:35:21.533Z,25.04
2022-08-26T00:37:56.737Z,25.01
2022-08-26T00:40:35.595Z,24.96
2022-08-26T00:43:09.429Z,24.94
2022-08-26T00:45:49.729Z,24.91
2022-08-26T00:48:25.347Z,24.86
2022-08-26T00:51:07.557Z,24.85
2022-08-26T00:53:57.884Z,24.84
2022-08-26T00:56:38.871Z,24.83
2022-08-26T00:59:13.971Z,24.83
2022-08-26T01:01:49.495Z,24.82
2022-08-26T01:04:23.973Z,24.82
2022-08-26T01:06:58.211Z,24.81
2022-08-26T01:09:31.166Z,24.83
2022-08-26T01:12:04.302Z,24.83
2022-08-26T01:14:37.466Z,24.83
2022-08-26T01:17:10.006Z,24.81
2022-08-26T01:20:00.277Z,24.81
2022-08-26T01:22:56.219Z,24.78
2022-08-26T01:25:32.846Z,24.75
2022-08-26T01:28:09.465Z,24.78
2022-08-26T01:30:44.289Z,24.78
2022-08-26T01:33:19.878Z,24.76
2022-08-26T01:35:52.450Z,24.73
2022-08-26T01:38:24.714Z,24.70
2022-08-26T01:40:57.369Z,24.67
2022-08-26T01:43:33.266Z,24.63
2022-08-26T01:46:06.839Z,24.59
2022-08-26T01:48:44.945Z,24.58
2022-08-26T01:51:20.830Z,24.59
2022-08-26T01:53:53.265Z,24.57
2022-08-26T01:56:25.552Z,24.55
2022-08-26T01:59:08.071Z,24.49
2022-08-26T02:01:41.551Z,24.45
2022-08-26T02:04:33.544Z,24.42
2022-08-26T02:07:10.015Z,24.43
2022-08-26T02:09:42.945Z,24.39
2022-08-26T02:12:17.722Z,24.34
2022-08-26T02:14:57.447Z,24.32
2022-08-26T02:17:35.562Z,24.28
2022-08-26T02:20:13.237Z,24.28
2022-08-26T02:22:47.894Z,24.28
2022-08-26T02:25:39.622Z,24.27
2022-08-26T02:28:13.237Z,24.25
2022-08-26T02:30:47.277Z,24.26
2022-08-26T02:33:19.721Z,24.27
2022-08-26T02:35:52.059Z,24.25
2022-08-26T02:38:24.125Z,24.23
2022-08-26T02:40:56.434Z,24.21
2022-08-26T02:43:31.697Z,24.21
2022-08-26T02:46:06.058Z,24.15
2022-08-26T02:48:38.437Z,24.13
2022-08-26T02:51:11.641Z,24.11
2022-08-26T02:53:45.323Z,24.02
2022-08-26T02:56:17.383Z,23.97
2022-08-26T02:58:50.358Z,23.91
2022-08-26T03:01:27.712Z,23.85
2022-08-26T03:04:03.170Z,23.83
2022-08-26T03:06:35.749Z,23.78
2022-08-26T03:09:09.631Z,23.76
2022-08-26T03:11:41.745Z,23.73
2022-08-26T03:14:13.824Z,23.71
2022-08-26T03:16:48.431Z,23.68
2022-08-26T03:19:23.386Z,23.63
2022-08-26T03:21:57.857Z,23.61
2022-08-26T03:24:30.608Z,23.57
2022-08-26T03:27:06.014Z,23.54
2022-08-26T03:29:58.572Z,23.48
2022-08-26T03:32:30.748Z,23.44
2022-08-26T03:35:02.802Z,23.42
2022-08-26T03:37:34.792Z,23.40
2022-08-26T03:40:10.554Z,23.38
2022-08-26T03:42:45.439Z,23.37
2022-08-26T03:45:20.174Z,23.38
2022-08-26T03:47:52.594Z,23.39
2022-08-26T03:50:25.646Z,23.34
2022-08-26T03:52:59.058Z,23.32
2022-08-26T03:55:33.292Z,23.32
2022-08-26T03:58:05.349Z,23.29
2022-08-26T04:00:37.516Z,23.30
2022-08-26T04:03:14.740Z,23.32
2022-08-26T04:05:52.449Z,23.32
2022-08-26T04:08:24.856Z,23.34
2022-08-26T04:11:01.328Z,23.31
2022-08-26T04:13:33.754Z,23.33
2022-08-26T04:16:06.146Z,23.31
2022-08-26T04:18:38.337Z,23.29
2022-08-26T04:21:18.773Z,23.25
2022-08-26T04:23:51.377Z,23.22
2022-08-26T04:26:24.455Z,23.20
2022-08-26T04:28:56.452Z,23.16
2022-08-26T04:31:28.577Z,23.13
2022-08-26T04:34:05.052Z,23.13
2022-08-26T04:36:37.895Z,23.13
2022-08-26T04:39:12.396Z,23.13
2022-08-26T04:41:45.077Z,23.13
2022-08-26T04:44:17.973Z,23.17
2022-08-26T04:46:50.003Z,23.16
2022-08-26T04:49:22.265Z,23.16
2022-08-26T04:51:55.029Z,23.16
2022-08-26T04:54:27.875Z,23.12
2022-08-26T04:57:00.490Z,23.12
2022-08-26T04:59:35.969Z,23.11
2022-08-26T05:02:11.974Z,23.09
2022-08-26T05:04:44.028Z,23.08
2022-08-26T05:07:17.708Z,23.08
2022-08-26T05:09:49.750Z,23.10
2022-08-26T05:12:21.978Z,23.10
2022-08-26T05:14:54.149Z,23.08
2022-08-26T05:17:29.884Z,23.09
2022-08-26T05:20:02.034Z,23.03
2022-08-26T05:22:34.065Z,23.04
2022-08-26T05:25:06.967Z,23.03
2022-08-26T05:27:38.998Z,23.09
2022-08-26T05:30:11.712Z,23.06
2022-08-26T05:32:43.929Z,23.04
2022-08-26T05:35:17.460Z,23.12
2022-08-26T05:37:50.012Z,23.14
2022-08-26T05:40:22.516Z,23.18
2022-08-26T05:42:55.694Z,23.22
2022-08-26T05:45:28.102Z,23.28
2022-08-26T05:48:00.099Z,23.33
2022-08-26T05:50:32.157Z,23.36
2022-08-26T05:53:04.611Z,23.39
2022-08-26T05:55:45.533Z,23.44
2022-08-26T05:58:22.624Z,23.47
2022-08-26T06:01:05.237Z,23.47
2022-08-26T06:03:40.380Z,23.43
2022-08-26T06:06:27.589Z,23.44
2022-08-26T06:09:04.614Z,23.44
2022-08-26T06:11:36.951Z,23.48
2022-08-26T06:14:09.554Z,23.53
2022-08-26T06:16:45.404Z,23.60
2022-08-26T06:19:17.626Z,23.70
2022-08-26T06:21:54.666Z,23.80
2022-08-26T06:24:45.899Z,23.85
2022-08-26T06:27:18.314Z,23.92
2022-08-26T06:29:51.669Z,24.00
2022-08-26T06:32:24.470Z,24.06
2022-08-26T06:34:56.801Z,24.14
2022-08-26T06:37:29.599Z,24.19
2022-08-26T06:40:01.737Z,24.20
2022-08-26T06:42:36.107Z,24.27
2022-08-26T06:45:08.702Z,24.33
2022-08-26T06:47:40.685Z,24.37
2022-08-26T06:50:12.910Z,24.43
2022-08-26T06:52:45.151Z,24.48
2022-08-26T06:55:17.219Z,24.54
2022-08-26T06:57:50.559Z,24.60
2022-08-26T07:00:22.712Z,24.69
2022-08-26T07:02:54.844Z,24.79
2022-08-26T07:05:27.058Z,24.85
2022-08-26T07:07:59.421Z,24.95
2022-08-26T07:10:32.023Z,25.01
2022-08-26T07:13:04.500Z,25.11
2022-08-26T07:15:42.771Z,25.23
2022-08-26T07:18:15.196Z,25.33
2022-08-26T07:20:47.212Z,25.44
2022-08-26T07:23:19.469Z,25.52
2022-08-26T07:25:51.470Z,25.62
2022-08-26T07:28:24.872Z,25.78
2022-08-26T07:30:58.551Z,25.91
2022-08-26T07:33:31.506Z,26.04
2022-08-26T07:36:04.207Z,26.11
2022-08-26T07:38:38.790Z,26.24
2022-08-26T07:41:13.358Z,26.51
2022-08-26T07:43:45.993Z,26.71
2022-08-26T07:46:29.961Z,26.89
2022-08-26T07:49:02.392Z,27.11
2022-08-26T07:51:35.764Z,27.36
2022-08-26T07:54:08.866Z,27.65
2022-08-26T07:56:41.143Z,28.02
2022-08-26T07:59:18.495Z,28.18
2022-08-26T08:01:51.431Z,28.41
2022-08-26T08:04:26.607Z,28.58
2022-08-26T08:06:58.959Z,28.69
2022-08-26T08:09:31.067Z,28.86
2022-08-26T08:12:04.626Z,29.17
2022-08-26T08:14:37.287Z,29.28
2022-08-26T08:17:09.677Z,29.17
2022-08-26T08:19:42.291Z,29.37
2022-08-26T08:22:17.600Z,29.70
2022-08-26T08:24:53.028Z,29.92
2022-08-26T08:27:25.978Z,30.01
2022-08-26T08:29:58.131Z,29.98
2022-08-26T08:32:30.314Z,29.90
2022-08-26T08:35:02.923Z,29.79
2022-08-26T08:37:44.093Z,29.89
2022-08-26T08:40:18.491Z,30.05
2022-08-26T08:43:39.487Z,29.92
2022-08-26T08:46:15.454Z,29.72
2022-08-26T08:48:54.677Z,29.81
2022-08-26T08:51:48.312Z,30.00
2022-08-26T08:54:21.994Z,30.42
2022-08-26T08:57:13.176Z,30.62
2022-08-26T09:00:03.771Z,31.00
2022-08-26T09:02:48.057Z,31.25
2022-08-26T09:05:30.024Z,31.75
2022-08-26T09:08:11.135Z,31.56
2022-08-26T09:11:00.620Z,31.91
2022-08-26T09:13:32.674Z,32.47
2022-08-26T09:16:14.368Z,32.90
2022-08-26T09:19:19.002Z,33.32
2022-08-26T09:22:00.352Z,33.57
2022-08-26T09:24:41.282Z,33.49
2022-08-26T09:27:44.444Z,33.58
2022-08-26T09:30:33.067Z,33.85
2022-08-26T09:33:10.150Z,33.59
2022-08-26T09:35:47.446Z,33.22
2022-08-26T09:38:30.585Z,33.07
2022-08-26T09:41:08.394Z,32.85
2022-08-26T09:43:40.875Z,32.57
2022-08-26T09:46:20.532Z,32.30
2022-08-26T09:48:53.324Z,32.19
2022-08-26T09:51:32.019Z,32.21
2022-08-26T09:54:05.706Z,32.27
2022-08-26T09:56:40.314Z,31.77
2022-08-26T09:59:12.572Z,31.97
2022-08-26T10:01:45.210Z,32.04
2022-08-26T10:04:23.257Z,32.26
2022-08-26T10:07:03.274Z,32.29
2022-08-26T10:09:43.154Z,32.15
2022-08-26T10:12:21.953Z,32.10
2022-08-26T10:15:00.557Z,32.33
2022-08-26T10:17:39.425Z,32.39
2022-08-26T10:20:23.847Z,32.54
2022-08-26T10:23:17.370Z,32.31
2022-08-26T10:26:05.849Z,32.56
2022-08-26T10:28:53.034Z,33.14
2022-08-26T10:31:40.223Z,34.07
2022-08-26T10:34:14.195Z,34.64
2022-08-26T10:37:14.932Z,35.09
2022-08-26T10:40:11.973Z,35.12
2022-08-26T10:43:11.322Z,34.96
2022-08-26T10:45:51.508Z,34.96
2022-08-26T10:48:49.103Z,35.18
2022-08-26T10:51:35.629Z,35.30
2022-08-26T10:54:13.956Z,35.72
2022-08-26T10:57:03.844Z,35.89
2022-08-26T10:59:56.760Z,36.78
2022-08-26T11:02:41.042Z,37.79
2022-08-26T11:05:25.349Z,38.51
2022-08-26T11:08:19.517Z,38.62
2022-08-26T11:10:58.023Z,38.96
2022-08-26T11:14:01.285Z,39.12
2022-08-26T11:16:35.070Z,38.72
2022-08-26T11:19:10.849Z,37.99
2022-08-26T11:22:02.849Z,37.50
2022-08-26T11:24:53.392Z,36.93
2022-08-26T11:27:37.499Z,36.66
2022-08-26T11:30:13.190Z,36.02
2022-08-26T11:32:58.200Z,35.85
2022-08-26T11:35:47.703Z,35.82
2022-08-26T11:38:29.156Z,35.68
2022-08-26T11:41:16.625Z,35.88
2022-08-26T11:43:52.267Z,36.62
2022-08-26T11:46:31.393Z,37.30
2022-08-26T11:49:07.413Z,38.24
2022-08-26T11:51:40.927Z,39.09
2022-08-26T11:54:35.203Z,39.88
2022-08-26T11:57:12.679Z,40.26
2022-08-26T11:59:44.843Z,39.83
2022-08-26T12:02:18.189Z,39.67
2022-08-26T12:04:53.861Z,39.07
2022-08-26T12:07:29.059Z,37.55
2022-08-26T12:10:04.543Z,36.29
2022-08-26T12:12:39.510Z,35.22
2022-08-26T12:15:20.082Z,34.37
2022-08-26T12:17:54.592Z,33.88
2022-08-26T12:20:49.009Z,33.31
2022-08-26T12:23:47.919Z,33.03
2022-08-26T12:26:35.871Z,33.14
2022-08-26T12:29:27.146Z,32.96
2022-08-26T12:32:14.899Z,32.67
2022-08-26T12:34:49.216Z,32.50
2022-08-26T12:37:21.534Z,32.48
2022-08-26T12:39:54.279Z,32.47
2022-08-26T12:42:42.539Z,32.46
2022-08-26T12:45:56.307Z,32.48
2022-08-26T12:48:36.128Z,33.26
2022-08-26T12:51:15.809Z,34.21
2022-08-26T12:53:47.800Z,34.09
2022-08-26T12:56:41.235Z,33.34
2022-08-26T12:59:25.815Z,32.74
2022-08-26T13:01:58.054Z,32.23
2022-08-26T13:04:44.193Z,31.63
2022-08-26T13:07:21.676Z,31.30
2022-08-26T13:09:57.708Z,31.07
2022-08-26T13:12:37.605Z,31.18
2022-08-26T13:15:09.916Z,31.77
2022-08-26T13:17:42.009Z,32.06
2022-08-26T13:20:14.108Z,31.74
2022-08-26T13:22:46.171Z,31.18
2022-08-26T13:25:30.480Z,30.66
2022-08-26T13:28:02.733Z,30.32
2022-08-26T13:30:35.200Z,29.84
2022-08-26T13:33:08.865Z,29.58
2022-08-26T13:35:44.750Z,29.28
2022-08-26T13:38:33.339Z,29.25
2022-08-26T13:41:06.396Z,29.00
2022-08-26T13:43:38.416Z,28.87
2022-08-26T13:46:10.485Z,28.70
2022-08-26T13:48:42.567Z,28.67
2022-08-26T13:51:18.764Z,28.59
2022-08-26T13:53:51.807Z,28.51
2022-08-26T13:56:27.470Z,28.52
2022-08-26T13:59:01.311Z,28.46
2022-08-26T14:01:36.213Z,28.31
2022-08-26T14:04:08.800Z,28.26
2022-08-26T14:06:40.845Z,28.15
2022-08-26T14:09:12.950Z,27.96
2022-08-26T14:11:52.065Z,27.62
2022-08-26T14:14:26.990Z,27.22
2022-08-26T14:17:00.438Z,26.65
2022-08-26T14:19:32.759Z,26.30
2022-08-26T14:22:04.897Z,25.90
2022-08-26T14:24:36.983Z,25.61
2022-08-26T14:27:08.994Z,25.39
2022-08-26T14:29:41.506Z,25.17
2022-08-26T14:32:23.714Z,25.09
2022-08-26T14:34:56.430Z,25.05
2022-08-26T14:37:28.538Z,25.03
2022-08-26T14:40:00.660Z,25.01
2022-08-26T14:42:35.623Z,24.97
2022-08-26T14:45:11.527Z,25.05
2022-08-26T14:47:48.448Z,25.10
2022-08-26T14:50:25.285Z,25.06
2022-08-26T14:53:16.228Z,25.17
2022-08-26T14:55:51.652Z,25.15
2022-08-26T14:58:24.085Z,25.13
2022-08-26T15:00:57.609Z,25.21
2022-08-26T15:03:30.204Z,25.32
2022-08-26T15:06:02.649Z,25.30
2022-08-26T15:08:36.923Z,25.25
2022-08-26T15:11:09.091Z,25.25
2022-08-26T15:13:41.347Z,25.19
2022-08-26T15:16:14.245Z,25.23
2022-08-26T15:18:46.405Z,25.16
2022-08-26T15:21:23.018Z,25.22
2022-08-26T15:23:55.412Z,25.28
2022-08-26T15:26:29.967Z,25.29
2022-08-26T15:29:04.975Z,25.29
2022-08-26T15:31:38.074Z,25.28
2022-08-26T15:34:16.440Z,25.31
2022-08-26T15:36:49.452Z,25.25
2022-08-26T15:39:21.842Z,25.14
2022-08-26T15:41:56.240Z,25.03
2022-08-26T15:44:28.953Z,25.00
2022-08-26T15:47:01.064Z,25.02
2022-08-26T15:49:33.219Z,24.97
2022-08-26T15:52:05.545Z,24.93
2022-08-26T15:54:37.854Z,24.83
2022-08-26T15:57:12.372Z,24.82
2022-08-26T15:59:45.708Z,24.80
2022-08-26T16:02:17.895Z,24.77
2022-08-26T16:04:49.977Z,24.74
2022-08-26T16:07:22.350Z,24.69
2022-08-26T16:09:55.204Z,24.71
2022-08-26T16:12:27.687Z,24.69
2022-08-26T16:14:59.808Z,24.78
2022-08-26T16:17:31.998Z,24.80
2022-08-26T16:20:05.171Z,24.88
2022-08-26T16:22:37.203Z,24.90
2022-08-26T16:25:09.940Z,24.78
2022-08-26T16:27:42.111Z,24.70
2022-08-26T16:30:15.404Z,24.57
2022-08-26T16:32:48.648Z,24.51
2022-08-26T16:35:20.875Z,24.51
2022-08-26T16:37:53.599Z,24.47
2022-08-26T16:40:26.009Z,24.55
2022-08-26T16:42:58.783Z,24.58
2022-08-26T16:45:31.085Z,24.65
2022-08-26T16:48:05.042Z,24.66
2022-08-26T16:50:40.783Z,24.62
2022-08-26T16:56:05.484Z,24.54
2022-08-26T16:58:37.503Z,24.50
2022-08-26T17:01:09.962Z,24.54
2022-08-26T17:03:42.589Z,24.61
2022-08-26T17:06:15.392Z,24.70
2022-08-26T17:08:48.103Z,24.79
2022-08-26T17:11:20.258Z,24.85
2022-08-26T17:13:52.349Z,24.80
2022-08-26T17:16:27.145Z,24.76
2022-08-26T17:19:00.340Z,24.60
2022-08-26T17:21:35.043Z,24.59
2022-08-26T17:24:07.319Z,24.55
2022-08-26T17:26:39.338Z,24.58
2022-08-26T17:29:12.427Z,24.55
2022-08-26T17:31:44.605Z,24.51
2022-08-26T17:34:17.224Z,24.49
2022-08-26T17:36:50.107Z,24.20
2022-08-26T17:39:22.078Z,24.24
2022-08-26T17:41:54.105Z,24.31
2022-08-26T17:44:26.659Z,24.23
2022-08-26T17:46:58.623Z,23.98
2022-08-26T17:49:30.589Z,23.99
2022-08-26T17:52:03.284Z,23.82
2022-08-26T17:54:35.474Z,23.88
2022-08-26T17:57:10.716Z,23.91
2022-08-26T17:59:42.963Z,23.80
2022-08-26T18:02:16.034Z,23.69
2022-08-26T18:04:48.143Z,23.78
2022-08-26T18:07:20.353Z,23.71
2022-08-26T18:09:52.382Z,23.58
2022-08-26T18:12:24.370Z,23.68
2022-08-26T18:14:59.912Z,23.77
2022-08-26T18:17:32.016Z,23.78
2022-08-26T18:20:04.793Z,23.73
2022-08-26T18:22:36.847Z,23.77
2022-08-26T18:25:09.733Z,23.77
2022-08-26T18:27:42.174Z,23.74
2022-08-26T18:30:20.760Z,23.78
2022-08-26T18:32:53.570Z,23.74
2022-08-26T18:35:28.547Z,23.71
2022-08-26T18:38:10.347Z,23.54
2022-08-26T18:40:45.298Z,23.46
2022-08-26T18:43:17.333Z,23.42
2022-08-26T18:45:49.591Z,23.34
2022-08-26T18:48:23.207Z,23.24
2022-08-26T18:50:55.431Z,23.23
2022-08-26T18:53:29.487Z,23.29
2022-08-26T18:56:01.744Z,23.29
2022-08-26T18:58:33.778Z,23.33
2022-08-26T19:01:06.294Z,23.29
2022-08-26T19:03:38.385Z,23.29
2022-08-26T19:06:18.696Z,23.34
2022-08-26T19:08:50.884Z,23.23
2022-08-26T19:11:32.624Z,23.21
2022-08-26T19:14:13.765Z,23.24
2022-08-26T19:16:48.747Z,23.24
2022-08-26T19:19:24.167Z,23.27
2022-08-26T19:21:56.200Z,23.21
2022-08-26T19:24:28.747Z,23.12
2022-08-26T19:27:02.251Z,23.12
2022-08-26T19:29:36.116Z,23.11
2022-08-26T19:32:08.707Z,23.12
2022-08-26T19:34:40.786Z,23.06
2022-08-26T19:37:12.769Z,23.05
2022-08-26T19:39:44.860Z,23.01
2022-08-26T19:42:17.092Z,22.97
2022-08-26T19:45:07.372Z,23.02
2022-08-26T19:47:53.591Z,23.00
2022-08-26T19:50:29.664Z,22.92
2022-08-26T19:53:04.186Z,22.92
2022-08-26T19:55:36.209Z,22.95
2022-08-26T19:58:08.393Z,22.94
2022-08-26T20:00:42.474Z,22.89
2022-08-26T20:03:15.823Z,22.87
2022-08-26T20:05:48.956Z,22.91
2022-08-26T20:08:22.641Z,22.87
2022-08-26T20:10:55.804Z,22.86
2022-08-26T20:13:28.372Z,22.94
2022-08-26T20:16:00.350Z,22.98
2022-08-26T20:18:50.936Z,23.07
2022-08-26T20:21:29.632Z,23.01
2022-08-26T20:24:09.477Z,23.03
2022-08-26T20:26:44.226Z,22.94
2022-08-26T20:29:18.448Z,22.81
2022-08-26T20:31:52.699Z,22.68
2022-08-26T20:34:26.384Z,22.65
2022-08-26T20:36:59.538Z,22.72
2022-08-26T20:39:31.934Z,22.66
2022-08-26T20:42:04.641Z,22.51
2022-08-26T20:44:37.811Z,22.62
2022-08-26T20:47:15.320Z,22.64
2022-08-26T20:49:47.382Z,22.67
2022-08-26T20:52:24.910Z,22.66
2022-08-26T20:54:57.142Z,22.72
2022-08-26T20:57:29.193Z,22.63
2022-08-26T21:00:01.336Z,22.53
2022-08-26T21:02:34.173Z,22.40
2022-08-26T21:05:07.739Z,22.39
2022-08-26T21:07:39.822Z,22.49
2022-08-26T21:10:12.881Z,22.49
2022-08-26T21:12:45.132Z,22.55
2022-08-26T21:15:17.251Z,22.45
2022-08-26T21:17:49.352Z,22.40
2022-08-26T21:20:21.649Z,22.38
2022-08-26T21:22:53.697Z,22.40
2022-08-26T21:25:26.187Z,22.48
2022-08-26T21:27:58.254Z,22.42
2022-08-26T21:30:30.312Z,22.34
2022-08-26T21:33:02.346Z,22.34
2022-08-26T21:35:34.832Z,22.42
2022-08-26T21:38:06.921Z,22.35
2022-08-26T21:40:38.981Z,22.40
2022-08-26T21:43:16.198Z,22.25
2022-08-26T21:46:14.568Z,22.19
2022-08-26T21:48:54.752Z,22.20
2022-08-26T21:51:30.814Z,22.25
2022-08-26T21:54:10.526Z,22.21
2022-08-26T21:56:46.780Z,22.29
2022-08-26T21:59:19.635Z,22.32
2022-08-26T22:01:51.734Z,22.27
2022-08-26T22:04:24.383Z,22.25
2022-08-26T22:06:59.587Z,22.14
2022-08-26T22:09:32.437Z,22.19
2022-08-26T22:12:05.238Z,22.19
2022-08-26T22:14:39.341Z,22.25
2022-08-26T22:17:12.035Z,22.21
2022-08-26T22:19:45.717Z,22.27
2022-08-26T22:22:18.563Z,22.17
2022-08-26T22:24:50.739Z,22.19
2022-08-26T22:27:23.329Z,22.18
2022-08-26T22:29:55.422Z,22.05
2022-08-26T22:32:27.508Z,21.95
2022-08-26T22:34:59.539Z,21.98
2022-08-26T22:37:31.586Z,22.03
2022-08-26T22:40:06.156Z,21.96
2022-08-26T22:42:39.500Z,21.93
2022-08-26T22:45:12.322Z,22.00
2022-08-26T22:47:44.356Z,22.05
2022-08-26T22:50:16.392Z,22.10
2022-08-26T22:52:48.376Z,22.03
2022-08-26T22:55:20.426Z,22.00
2022-08-26T22:57:52.869Z,22.02
2022-08-26T23:00:31.793Z,22.01
2022-08-26T23:03:04.992Z,22.08
2022-08-26T23:05:39.498Z,22.01
2022-08-26T23:08:12.782Z,21.98
2022-08-26T23:10:47.622Z,21.97
2022-08-26T23:13:20.199Z,21.88
2022-08-26T23:16:02.344Z,21.91
2022-08-26T23:18:34.435Z,21.92
2022-08-26T23:21:08.150Z,21.92
2022-08-26T23:23:40.161Z,21.91
2022-08-26T23:26:16.675Z,21.81
2022-08-26T23:28:49.602Z,21.75
2022-08-26T23:31:21.805Z,21.86
2022-08-26T23:34:12.203Z,21.89
2022-08-26T23:36:44.375Z,21.90
2022-08-26T23:39:18.669Z,21.91
2022-08-26T23:41:50.683Z,21.83
2022-08-26T23:44:22.696Z,21.81
2022-08-26T23:46:55.574Z,21.77
2022-08-26T23:49:28.258Z,21.76
2022-08-26T23:52:19.194Z,21.76
2022-08-26T23:54:52.934Z,21.60
2022-08-26T23:57:26.356Z,21.57
2022-08-26T23:59:58.365Z,21.59
